Time;durP1;ratioP1;P1;durP2;ratioP2;P2;SDS_P1;SDS_P2;PMS_P1;PMS_P2;Temp;Humidity;BMP_temperature;BMP_pressure;BME280_temperature;BME280_humidity;BME280_pressure;Samples;Min_cycle;Max_cycle;Signal;HPM_P1;HPM_P2
2021/12/11 00:13:41;;;;;;;21.4;17.7;;;;;;;1.3;83.8;100290;;;;
2021/12/11 00:15:41;;;;;;;21.4;17.7;;;;;;;1.4;83.8;100300;;;;
2021/12/11 00:17:41;;;;;;;22.3;17.3;;;;;;;1.3;83.8;100310;;;;
2021/12/11 00:21:41;;;;;;;22.3;17.3;;;;;;;1.4;84.2;100310;;;;
2021/12/11 00:25:41;;;;;;;22.3;17.3;;;;;;;1.3;84.0;100320;;;;
2021/12/11 00:27:41;;;;;;;22.3;17.3;;;;;;;1.4;84.1;100320;;;;
2021/12/11 00:35:41;;;;;;;22.3;17.3;;;;;;;1.5;83.9;100340;;;;
2021/12/11 00:37:41;;;;;;;23.5;18.3;;;;;;;1.4;83.8;100340;;;;
2021/12/11 00:43:41;;;;;;;23.5;18.3;;;;;;;1.5;84.2;100360;;;;
2021/12/11 00:49:41;;;;;;;23.5;18.3;;;;;;;1.4;84.4;100370;;;;
2021/12/11 00:59:41;;;;;;;29.0;21.7;;;;;;;1.5;84.7;100390;;;;
2021/12/11 01:03:41;;;;;;;29.0;21.7;;;;;;;1.4;84.6;100400;;;;
2021/12/11 01:13:41;;;;;;;29.0;21.7;;;;;;;1.3;83.9;100410;;;;
2021/12/11 01:15:44;;;;;;;32.2;23.5;;;;;;;1.4;83.9;100430;;;;
2021/12/11 01:19:41;;;;;;;32.2;23.5;;;;;;;1.3;83.7;100430;;;;
2021/12/11 01:27:41;;;;;;;32.2;23.5;;;;;;;1.3;83.1;100450;;;;
2021/12/11 01:45:41;;;;;;;29.6;23.2;;;;;;;1.2;82.8;100480;;;;
2021/12/11 01:47:41;;;;;;;29.6;23.2;;;;;;;1.3;82.9;100480;;;;
2021/12/11 01:49:41;;;;;;;29.6;23.2;;;;;;;1.2;82.9;100480;;;;
2021/12/11 01:55:41;;;;;;;31.9;23.5;;;;;;;1.3;83.0;100510;;;;
2021/12/11 01:57:41;;;;;;;31.9;23.5;;;;;;;1.2;82.9;100510;;;;
2021/12/11 02:19:41;;;;;;;28.3;22.6;;;;;;;1.1;83.0;100570;;;;
2021/12/11 02:31:42;;;;;;;28.3;22.6;;;;;;;1.0;83.3;100580;;;;
2021/12/11 02:47:41;;;;;;;31.4;23.1;;;;;;;0.9;82.7;100600;;;;
2021/12/11 02:55:41;;;;;;;105.7;30.6;;;;;;;1.0;83.0;100620;;;;
2021/12/11 03:13:41;;;;;;;105.7;30.6;;;;;;;1.1;83.2;100630;;;;
2021/12/11 03:17:41;;;;;;;121.1;31.2;;;;;;;1.0;83.5;100640;;;;
2021/12/11 03:19:43;;;;;;;121.1;31.2;;;;;;;1.1;83.3;100650;;;;
2021/12/11 03:21:41;;;;;;;121.1;31.2;;;;;;;1.0;83.1;100650;;;;
2021/12/11 03:25:41;;;;;;;121.1;31.2;;;;;;;1.1;83.3;100650;;;;
2021/12/11 03:51:41;;;;;;;80.8;30.3;;;;;;;1.2;83.3;100670;;;;
2021/12/11 03:57:43;;;;;;;35.6;25.2;;;;;;;1.1;83.1;100680;;;;
2021/12/11 04:03:41;;;;;;;35.6;25.2;;;;;;;1.0;83.6;100690;;;;
2021/12/11 04:13:41;;;;;;;35.6;25.2;;;;;;;1.1;83.9;100700;;;;
2021/12/11 04:17:41;;;;;;;100.4;30.5;;;;;;;1.0;83.6;100700;;;;
2021/12/11 04:37:41;;;;;;;151.1;33.9;;;;;;;1.1;84.2;100730;;;;
2021/12/11 04:47:48;;;;;;;151.1;33.9;;;;;;;1.2;84.0;100740;;;;
2021/12/11 04:49:49;;;;;;;151.1;33.9;;;;;;;1.1;83.9;100750;;;;
2021/12/11 05:06:00;;;;;;;46.3;27.6;;;;;;;1.2;84.4;100770;;;;
2021/12/11 05:13:41;;;;;;;46.3;27.6;;;;;;;1.3;84.0;100790;;;;
2021/12/11 05:19:41;;;;;;;40.9;28.7;;;;;;;1.4;84.0;100790;;;;
2021/12/11 05:29:41;;;;;;;40.9;28.7;;;;;;;1.5;84.5;100810;;;;
2021/12/11 05:43:41;;;;;;;48.2;29.8;;;;;;;1.6;84.6;100810;;;;
2021/12/11 05:55:41;;;;;;;47.4;31.3;;;;;;;1.7;84.9;100820;;;;
2021/12/11 05:59:41;;;;;;;47.4;31.3;;;;;;;1.8;85.4;100830;;;;
2021/12/11 06:03:41;;;;;;;47.4;31.3;;;;;;;1.7;85.5;100830;;;;
2021/12/11 06:05:41;;;;;;;47.4;31.3;;;;;;;1.8;86.1;100830;;;;
2021/12/11 06:07:43;;;;;;;47.4;31.3;;;;;;;1.7;85.7;100830;;;;
2021/12/11 06:09:42;;;;;;;47.4;31.3;;;;;;;1.8;85.8;100840;;;;
2021/12/11 06:17:42;;;;;;;56.9;33.4;;;;;;;1.9;85.8;100840;;;;
2021/12/11 06:21:43;;;;;;;56.9;33.4;;;;;;;2.0;86.1;100850;;;;
2021/12/11 06:23:41;;;;;;;56.9;33.4;;;;;;;1.9;85.7;100850;;;;
2021/12/11 06:25:41;;;;;;;56.9;33.4;;;;;;;2.0;86.2;100850;;;;
2021/12/11 06:27:42;;;;;;;56.9;33.4;;;;;;;1.9;86.0;100860;;;;
2021/12/11 06:33:41;;;;;;;56.9;33.4;;;;;;;1.8;86.5;100870;;;;
2021/12/11 06:35:41;;;;;;;57.3;33.6;;;;;;;1.9;86.3;100870;;;;
2021/12/11 06:39:49;;;;;;;57.3;33.6;;;;;;;2.0;86.7;100870;;;;
2021/12/11 06:41:41;;;;;;;57.3;33.6;;;;;;;1.9;86.8;100880;;;;
2021/12/11 06:47:41;;;;;;;57.3;33.6;;;;;;;2.0;87.0;100880;;;;
2021/12/11 06:51:41;;;;;;;57.3;33.6;;;;;;;1.9;86.7;100890;;;;
2021/12/11 06:53:41;;;;;;;57.3;33.6;;;;;;;2.0;86.7;100890;;;;
2021/12/11 07:05:41;;;;;;;72.8;38.6;;;;;;;2.1;87.2;100900;;;;
2021/12/11 07:07:42;;;;;;;72.8;38.6;;;;;;;2.0;87.0;100910;;;;
2021/12/11 07:11:43;;;;;;;72.8;38.6;;;;;;;2.2;87.3;100910;;;;
2021/12/11 07:21:41;;;;;;;62.1;36.0;;;;;;;2.1;87.4;100920;;;;
2021/12/11 07:23:45;;;;;;;62.1;36.0;;;;;;;2.2;87.8;100920;;;;
2021/12/11 07:29:41;;;;;;;62.1;36.0;;;;;;;2.3;87.7;100930;;;;
2021/12/11 07:39:41;;;;;;;61.0;35.8;;;;;;;2.4;87.8;100930;;;;
2021/12/11 07:43:41;;;;;;;61.0;35.8;;;;;;;2.3;87.7;100940;;;;
2021/12/11 07:45:41;;;;;;;61.0;35.8;;;;;;;2.4;87.6;100940;;;;
2021/12/11 07:47:41;;;;;;;61.0;35.8;;;;;;;2.5;87.8;100940;;;;
2021/12/11 07:51:41;;;;;;;61.0;35.8;;;;;;;2.6;88.0;100950;;;;
2021/12/11 07:53:41;;;;;;;61.0;35.8;;;;;;;2.5;88.1;100950;;;;
2021/12/11 07:55:41;;;;;;;59.1;34.7;;;;;;;2.6;88.2;100950;;;;
2021/12/11 08:07:41;;;;;;;59.1;34.7;;;;;;;2.7;88.5;100970;;;;
2021/12/11 08:09:41;;;;;;;59.1;34.7;;;;;;;2.8;88.6;100990;;;;
2021/12/11 08:13:43;;;;;;;53.5;33.9;;;;;;;2.9;88.5;100990;;;;
2021/12/11 08:17:41;;;;;;;53.5;33.9;;;;;;;2.8;88.4;101000;;;;
2021/12/11 08:19:41;;;;;;;53.5;33.9;;;;;;;2.9;89.0;101000;;;;
2021/12/11 08:21:41;;;;;;;53.5;33.9;;;;;;;2.8;88.9;101000;;;;
2021/12/11 08:23:46;;;;;;;53.5;33.9;;;;;;;3.0;89.2;101010;;;;
2021/12/11 08:27:41;;;;;;;53.5;33.9;;;;;;;3.1;89.2;101020;;;;
2021/12/11 08:33:41;;;;;;;42.2;28.3;;;;;;;3.2;89.2;101030;;;;
2021/12/11 08:37:41;;;;;;;42.2;28.3;;;;;;;3.3;88.6;101030;;;;
2021/12/11 08:45:47;;;;;;;42.2;28.3;;;;;;;3.4;89.6;101040;;;;
2021/12/11 08:47:41;;;;;;;42.2;28.3;;;;;;;3.5;89.4;101040;;;;
2021/12/11 08:51:41;;;;;;;42.2;28.3;;;;;;;3.6;89.1;101040;;;;
2021/12/11 08:59:41;;;;;;;24.2;18.0;;;;;;;3.5;89.0;101060;;;;
2021/12/11 09:01:41;;;;;;;24.2;18.0;;;;;;;3.6;89.4;101070;;;;
2021/12/11 09:03:41;;;;;;;24.2;18.0;;;;;;;3.7;89.4;101060;;;;
2021/12/11 09:07:41;;;;;;;24.2;18.0;;;;;;;3.8;89.6;101080;;;;
2021/12/11 09:13:41;;;;;;;31.6;20.1;;;;;;;3.9;89.8;101100;;;;
2021/12/11 09:15:41;;;;;;;31.6;20.1;;;;;;;4.0;89.8;101110;;;;
2021/12/11 09:21:41;;;;;;;31.6;20.1;;;;;;;4.1;90.1;101120;;;;
2021/12/11 09:27:41;;;;;;;31.6;20.1;;;;;;;4.2;90.0;101130;;;;
2021/12/11 09:33:41;;;;;;;33.6;24.9;;;;;;;4.4;89.9;101150;;;;
2021/12/11 09:43:41;;;;;;;33.6;24.9;;;;;;;4.3;89.5;101180;;;;
2021/12/11 09:45:41;;;;;;;33.6;24.9;;;;;;;4.4;89.3;101180;;;;
2021/12/11 09:47:41;;;;;;;33.6;24.9;;;;;;;4.3;89.1;101190;;;;
2021/12/11 09:49:42;;;;;;;33.6;24.9;;;;;;;4.1;89.2;101190;;;;
2021/12/11 09:53:41;;;;;;;37.8;28.5;;;;;;;4.2;89.9;101200;;;;
2021/12/11 09:59:41;;;;;;;37.8;28.5;;;;;;;4.1;89.5;101220;;;;
2021/12/11 10:01:41;;;;;;;37.8;28.5;;;;;;;4.0;89.6;101220;;;;
2021/12/11 10:03:45;;;;;;;37.8;28.5;;;;;;;4.1;89.8;101220;;;;
2021/12/11 10:09:41;;;;;;;37.8;28.5;;;;;;;4.2;89.3;101230;;;;
2021/12/11 10:11:41;;;;;;;37.8;28.5;;;;;;;4.1;88.9;101220;;;;
2021/12/11 10:17:41;;;;;;;37.9;28.9;;;;;;;4.2;88.9;101240;;;;
2021/12/11 10:19:41;;;;;;;37.9;28.9;;;;;;;4.1;88.6;101240;;;;
2021/12/11 10:21:41;;;;;;;37.9;28.9;;;;;;;4.2;89.0;101250;;;;
2021/12/11 10:25:41;;;;;;;37.9;28.9;;;;;;;4.3;88.9;101250;;;;
2021/12/11 10:27:41;;;;;;;37.9;28.9;;;;;;;4.2;88.8;101250;;;;
2021/12/11 10:29:42;;;;;;;37.9;28.9;;;;;;;4.3;89.0;101260;;;;
2021/12/11 10:33:47;;;;;;;44.6;29.8;;;;;;;4.4;89.0;101270;;;;
2021/12/11 10:35:41;;;;;;;44.6;29.8;;;;;;;4.5;89.0;101260;;;;
2021/12/11 10:39:41;;;;;;;44.6;29.8;;;;;;;4.4;88.2;101270;;;;
2021/12/11 10:49:41;;;;;;;44.6;29.8;;;;;;;4.3;88.3;101270;;;;
2021/12/11 10:53:42;;;;;;;50.0;32.3;;;;;;;4.2;88.7;101280;;;;
2021/12/11 10:57:41;;;;;;;50.0;32.3;;;;;;;4.3;88.9;101290;;;;
2021/12/11 11:05:41;;;;;;;50.0;32.3;;;;;;;4.4;88.7;101310;;;;
2021/12/11 11:11:41;;;;;;;50.0;32.3;;;;;;;4.3;88.6;101320;;;;
2021/12/11 11:15:41;;;;;;;42.0;30.1;;;;;;;4.4;88.4;101320;;;;
2021/12/11 11:17:41;;;;;;;42.0;30.1;;;;;;;4.5;88.4;101330;;;;
2021/12/11 11:19:41;;;;;;;42.0;30.1;;;;;;;4.4;88.3;101330;;;;
2021/12/11 11:23:41;;;;;;;42.0;30.1;;;;;;;4.5;88.8;101340;;;;
2021/12/11 11:25:41;;;;;;;42.0;30.1;;;;;;;4.6;88.7;101340;;;;
2021/12/11 11:29:41;;;;;;;42.0;30.1;;;;;;;4.5;88.4;101350;;;;
2021/12/11 11:31:41;;;;;;;42.0;30.1;;;;;;;4.6;88.4;101350;;;;
2021/12/11 11:33:41;;;;;;;50.1;32.7;;;;;;;4.7;88.5;101360;;;;
2021/12/11 11:37:41;;;;;;;50.1;32.7;;;;;;;4.8;88.4;101370;;;;
2021/12/11 11:47:41;;;;;;;50.1;32.7;;;;;;;4.9;88.2;101360;;;;
2021/12/11 11:49:41;;;;;;;50.1;32.7;;;;;;;4.8;88.1;101360;;;;
2021/12/11 11:51:41;;;;;;;50.1;32.7;;;;;;;4.9;88.4;101360;;;;
2021/12/11 11:53:42;;;;;;;48.3;33.5;;;;;;;5.0;88.5;101370;;;;
2021/12/11 11:57:41;;;;;;;48.3;33.5;;;;;;;5.1;88.3;101380;;;;
2021/12/11 12:01:41;;;;;;;48.3;33.5;;;;;;;5.2;88.6;101390;;;;
2021/12/11 12:03:41;;;;;;;48.3;33.5;;;;;;;5.1;88.3;101390;;;;
2021/12/11 12:05:42;;;;;;;48.3;33.5;;;;;;;5.0;88.5;101390;;;;
2021/12/11 12:07:41;;;;;;;48.3;33.5;;;;;;;5.2;88.7;101390;;;;
2021/12/11 12:09:41;;;;;;;48.3;33.5;;;;;;;5.3;88.4;101390;;;;
2021/12/11 12:13:51;;;;;;;44.7;33.7;;;;;;;5.4;88.1;101400;;;;
2021/12/11 12:15:41;;;;;;;44.7;33.7;;;;;;;5.6;88.5;101400;;;;
2021/12/11 12:17:41;;;;;;;44.7;33.7;;;;;;;5.7;88.6;101400;;;;
2021/12/11 12:19:41;;;;;;;44.7;33.7;;;;;;;5.8;88.3;101400;;;;
2021/12/11 12:21:41;;;;;;;44.7;33.7;;;;;;;5.9;87.8;101400;;;;
2021/12/11 12:25:41;;;;;;;44.7;33.7;;;;;;;6.0;87.4;101400;;;;
2021/12/11 12:31:41;;;;;;;44.7;33.7;;;;;;;6.1;87.1;101410;;;;
2021/12/11 12:33:41;;;;;;;29.9;23.8;;;;;;;6.2;86.9;101410;;;;
2021/12/11 12:35:41;;;;;;;29.9;23.8;;;;;;;6.0;86.8;101410;;;;
2021/12/11 12:37:41;;;;;;;29.9;23.8;;;;;;;6.1;87.2;101410;;;;
2021/12/11 12:39:41;;;;;;;29.9;23.8;;;;;;;6.2;87.4;101410;;;;
2021/12/11 12:47:41;;;;;;;29.9;23.8;;;;;;;6.2;86.5;101410;;;;
2021/12/11 12:49:41;;;;;;;29.9;23.8;;;;;;;6.3;86.5;101410;;;;
2021/12/11 12:53:44;;;;;;;16.3;14.1;;;;;;;6.4;86.5;101420;;;;
2021/12/11 12:55:41;;;;;;;16.3;14.1;;;;;;;6.3;85.9;101420;;;;
2021/12/11 13:01:41;;;;;;;16.3;14.1;;;;;;;6.4;86.8;101420;;;;
2021/12/11 13:03:42;;;;;;;16.3;14.1;;;;;;;6.5;86.8;101420;;;;
2021/12/11 13:07:41;;;;;;;16.3;14.1;;;;;;;6.4;86.2;101430;;;;
2021/12/11 13:11:41;;;;;;;16.3;14.1;;;;;;;6.3;85.9;101440;;;;
2021/12/11 13:13:42;;;;;;;16.0;10.4;;;;;;;6.4;86.5;101440;;;;
2021/12/11 13:15:41;;;;;;;16.0;10.4;;;;;;;6.5;85.8;101440;;;;
2021/12/11 13:17:41;;;;;;;16.0;10.4;;;;;;;6.4;85.8;101440;;;;
2021/12/11 13:19:41;;;;;;;16.0;10.4;;;;;;;6.3;86.4;101440;;;;
2021/12/11 13:23:42;;;;;;;16.0;10.4;;;;;;;6.4;86.6;101450;;;;
2021/12/11 13:25:41;;;;;;;16.0;10.4;;;;;;;6.5;86.5;101460;;;;
2021/12/11 13:31:41;;;;;;;16.0;10.4;;;;;;;6.6;86.8;101460;;;;
2021/12/11 13:35:43;;;;;;;13.8;7.7;;;;;;;6.4;86.5;101460;;;;
2021/12/11 13:37:41;;;;;;;13.8;7.7;;;;;;;6.5;86.7;101470;;;;
2021/12/11 13:39:41;;;;;;;13.8;7.7;;;;;;;6.4;86.7;101480;;;;
2021/12/11 13:41:46;;;;;;;13.8;7.7;;;;;;;6.5;86.6;101480;;;;
2021/12/11 13:43:41;;;;;;;13.8;7.7;;;;;;;6.6;86.6;101480;;;;
2021/12/11 13:45:42;;;;;;;13.8;7.7;;;;;;;6.5;85.9;101470;;;;
2021/12/11 13:53:43;;;;;;;13.1;6.8;;;;;;;6.4;86.1;101470;;;;
2021/12/11 13:57:41;;;;;;;13.1;6.8;;;;;;;6.3;86.7;101480;;;;
2021/12/11 13:59:41;;;;;;;13.1;6.8;;;;;;;6.4;86.5;101480;;;;
2021/12/11 14:01:41;;;;;;;13.1;6.8;;;;;;;6.5;86.0;101480;;;;
2021/12/11 14:03:42;;;;;;;13.1;6.8;;;;;;;6.4;85.8;101480;;;;
2021/12/11 14:05:41;;;;;;;13.1;6.8;;;;;;;6.5;86.1;101480;;;;
2021/12/11 14:09:42;;;;;;;13.1;6.8;;;;;;;6.4;85.8;101490;;;;
2021/12/11 14:11:41;;;;;;;13.1;6.8;;;;;;;6.5;86.3;101500;;;;
2021/12/11 14:13:41;;;;;;;16.3;7.2;;;;;;;6.6;86.1;101500;;;;
2021/12/11 14:17:41;;;;;;;16.3;7.2;;;;;;;6.7;85.7;101500;;;;
2021/12/11 14:19:43;;;;;;;16.3;7.2;;;;;;;6.6;85.6;101510;;;;
2021/12/11 14:23:42;;;;;;;16.3;7.2;;;;;;;6.5;85.5;101510;;;;
2021/12/11 14:25:41;;;;;;;16.3;7.2;;;;;;;6.4;85.8;101510;;;;
2021/12/11 14:33:41;;;;;;;13.0;7.2;;;;;;;6.3;85.9;101520;;;;
2021/12/11 14:35:41;;;;;;;13.0;7.2;;;;;;;6.4;86.2;101530;;;;
2021/12/11 14:39:46;;;;;;;13.0;7.2;;;;;;;6.3;86.0;101540;;;;
2021/12/11 14:41:41;;;;;;;13.0;7.2;;;;;;;6.4;85.9;101540;;;;
2021/12/11 14:47:41;;;;;;;13.0;7.2;;;;;;;6.3;85.5;101550;;;;
2021/12/11 14:53:41;;;;;;;14.9;7.8;;;;;;;6.2;85.4;101560;;;;
2021/12/11 15:07:41;;;;;;;14.9;7.8;;;;;;;6.0;85.6;101570;;;;
2021/12/11 15:09:41;;;;;;;14.9;7.8;;;;;;;6.1;85.3;101570;;;;
2021/12/11 15:11:41;;;;;;;14.9;7.8;;;;;;;6.0;85.2;101570;;;;
2021/12/11 15:15:41;;;;;;;13.7;7.4;;;;;;;5.9;85.4;101570;;;;
2021/12/11 15:17:41;;;;;;;13.7;7.4;;;;;;;5.8;85.3;101580;;;;
2021/12/11 15:23:41;;;;;;;13.7;7.4;;;;;;;5.7;84.8;101600;;;;
2021/12/11 15:27:41;;;;;;;13.7;7.4;;;;;;;5.6;84.8;101600;;;;
2021/12/11 15:31:41;;;;;;;13.7;7.4;;;;;;;5.5;84.8;101610;;;;
2021/12/11 15:35:41;;;;;;;16.4;7.6;;;;;;;5.4;84.6;101610;;;;
2021/12/11 15:37:41;;;;;;;16.4;7.6;;;;;;;5.3;84.8;101620;;;;
2021/12/11 15:41:41;;;;;;;16.4;7.6;;;;;;;5.4;85.0;101620;;;;
2021/12/11 15:43:42;;;;;;;16.4;7.6;;;;;;;5.3;84.9;101620;;;;
2021/12/11 15:49:41;;;;;;;16.4;7.6;;;;;;;5.2;84.9;101620;;;;
2021/12/11 15:55:41;;;;;;;15.0;8.1;;;;;;;5.1;85.1;101620;;;;
2021/12/11 15:57:41;;;;;;;15.0;8.1;;;;;;;5.2;84.9;101620;;;;
2021/12/11 15:59:41;;;;;;;15.0;8.1;;;;;;;5.1;84.7;101630;;;;
2021/12/11 16:01:41;;;;;;;15.0;8.1;;;;;;;5.0;84.9;101630;;;;
2021/12/11 16:05:41;;;;;;;15.0;8.1;;;;;;;4.9;84.5;101630;;;;
2021/12/11 16:09:42;;;;;;;15.0;8.1;;;;;;;4.8;84.6;101630;;;;
2021/12/11 16:15:41;;;;;;;16.3;9.9;;;;;;;4.7;84.4;101640;;;;
2021/12/11 16:17:41;;;;;;;16.3;9.9;;;;;;;4.6;84.5;101640;;;;
2021/12/11 16:27:41;;;;;;;16.3;9.9;;;;;;;4.5;84.5;101650;;;;
2021/12/11 16:29:41;;;;;;;16.3;9.9;;;;;;;4.4;84.5;101660;;;;
2021/12/11 16:37:41;;;;;;;12.7;9.7;;;;;;;4.3;84.3;101660;;;;
2021/12/11 16:41:41;;;;;;;12.7;9.7;;;;;;;4.2;84.4;101660;;;;
2021/12/11 16:47:41;;;;;;;12.7;9.7;;;;;;;4.1;84.4;101680;;;;
2021/12/11 16:53:42;;;;;;;41.2;33.6;;;;;;;4.0;84.6;101690;;;;
2021/12/11 16:59:41;;;;;;;41.2;33.6;;;;;;;3.9;84.5;101700;;;;
2021/12/11 17:03:41;;;;;;;41.2;33.6;;;;;;;3.8;84.4;101710;;;;
2021/12/11 17:09:41;;;;;;;41.2;33.6;;;;;;;3.7;84.9;101710;;;;
2021/12/11 17:11:41;;;;;;;23.0;16.4;;;;;;;3.8;85.1;101710;;;;
2021/12/11 17:15:41;;;;;;;23.0;16.4;;;;;;;3.7;85.6;101700;;;;
2021/12/11 17:17:41;;;;;;;23.0;16.4;;;;;;;3.8;85.8;101710;;;;
2021/12/11 17:21:41;;;;;;;23.0;16.4;;;;;;;3.9;86.0;101710;;;;
2021/12/11 17:29:43;;;;;;;23.0;16.4;;;;;;;4.0;86.2;101720;;;;
2021/12/11 17:33:42;;;;;;;20.2;11.7;;;;;;;4.1;86.3;101720;;;;
2021/12/11 17:35:41;;;;;;;20.2;11.7;;;;;;;4.0;86.3;101720;;;;
2021/12/11 17:37:41;;;;;;;20.2;11.7;;;;;;;4.2;86.3;101730;;;;
2021/12/11 17:43:42;;;;;;;20.2;11.7;;;;;;;4.1;86.1;101730;;;;
2021/12/11 17:45:41;;;;;;;20.2;11.7;;;;;;;4.2;86.1;101740;;;;
2021/12/11 17:49:41;;;;;;;20.2;11.7;;;;;;;4.3;86.1;101750;;;;
2021/12/11 17:51:41;;;;;;;20.4;13.4;;;;;;;4.2;86.1;101750;;;;
2021/12/11 18:03:41;;;;;;;20.4;13.4;;;;;;;4.3;86.2;101760;;;;
2021/12/11 18:05:41;;;;;;;20.4;13.4;;;;;;;4.2;86.1;101750;;;;
2021/12/11 18:09:44;;;;;;;20.4;13.4;;;;;;;4.3;86.0;101760;;;;
2021/12/11 18:17:41;;;;;;;21.1;15.1;;;;;;;4.2;86.1;101760;;;;
2021/12/11 18:19:41;;;;;;;21.1;15.1;;;;;;;4.4;86.2;101760;;;;
2021/12/11 18:21:48;;;;;;;21.1;15.1;;;;;;;4.3;86.2;101760;;;;
2021/12/11 18:29:41;;;;;;;21.1;15.1;;;;;;;4.2;86.2;101770;;;;
2021/12/11 18:41:41;;;;;;;26.7;18.9;;;;;;;4.1;86.2;101790;;;;
2021/12/11 18:43:42;;;;;;;26.7;18.9;;;;;;;4.2;86.3;101800;;;;
2021/12/11 18:47:43;;;;;;;26.7;18.9;;;;;;;4.1;86.3;101810;;;;
2021/12/11 18:51:41;;;;;;;28.5;18.2;;;;;;;4.2;86.4;101810;;;;
2021/12/11 18:53:42;;;;;;;28.5;18.2;;;;;;;4.1;86.6;101800;;;;
2021/12/11 18:57:42;;;;;;;28.5;18.2;;;;;;;4.2;86.5;101800;;;;
2021/12/11 18:59:41;;;;;;;28.5;18.2;;;;;;;4.1;86.5;101800;;;;
2021/12/11 19:01:41;;;;;;;28.5;18.2;;;;;;;4.2;86.4;101800;;;;
2021/12/11 19:03:42;;;;;;;28.5;18.2;;;;;;;4.1;86.6;101810;;;;
2021/12/11 19:05:41;;;;;;;28.5;18.2;;;;;;;4.2;86.5;101810;;;;
2021/12/11 19:07:41;;;;;;;28.5;18.2;;;;;;;4.1;86.4;101810;;;;
2021/12/11 19:21:41;;;;;;;28.3;18.3;;;;;;;4.0;86.8;101780;;;;
2021/12/11 19:23:41;;;;;;;28.3;18.3;;;;;;;4.1;86.9;101780;;;;
2021/12/11 19:27:43;;;;;;;28.3;18.3;;;;;;;4.0;86.8;101780;;;;
2021/12/11 19:33:42;;;;;;;28.9;19.5;;;;;;;4.2;86.7;101790;;;;
2021/12/11 19:35:41;;;;;;;28.9;19.5;;;;;;;4.1;86.5;101790;;;;
2021/12/11 19:41:41;;;;;;;28.9;19.5;;;;;;;4.0;86.6;101800;;;;
2021/12/11 19:43:44;;;;;;;28.9;19.5;;;;;;;3.9;86.7;101800;;;;
2021/12/11 19:45:41;;;;;;;28.9;19.5;;;;;;;4.0;86.7;101800;;;;
2021/12/11 19:49:41;;;;;;;28.9;19.5;;;;;;;3.9;86.7;101790;;;;
2021/12/11 19:53:51;;;;;;;30.9;19.7;;;;;;;4.0;86.8;101800;;;;
2021/12/11 19:55:41;;;;;;;30.9;19.7;;;;;;;3.9;86.8;101800;;;;
2021/12/11 19:59:41;;;;;;;30.9;19.7;;;;;;;4.0;86.8;101800;;;;
2021/12/11 20:03:41;;;;;;;30.9;19.7;;;;;;;3.9;86.3;101810;;;;
2021/12/11 20:17:41;;;;;;;30.1;18.5;;;;;;;3.8;86.5;101820;;;;
2021/12/11 20:23:43;;;;;;;30.1;18.5;;;;;;;3.9;86.8;101830;;;;
2021/12/11 20:25:41;;;;;;;30.1;18.5;;;;;;;3.8;86.8;101820;;;;
2021/12/11 20:29:41;;;;;;;30.1;18.5;;;;;;;3.9;86.7;101830;;;;
2021/12/11 20:33:42;;;;;;;30.8;19.6;;;;;;;3.8;86.5;101840;;;;
